Time;durP1;ratioP1;P1;durP2;ratioP2;P2;SDS_P1;SDS_P2;PMS_P1;PMS_P2;Temp;Humidity;BMP_temperature;BMP_pressure;BME280_temperature;BME280_humidity;BME280_pressure;Samples;Min_cycle;Max_cycle;Signal;HPM_P1;HPM_P2
2022/07/14 00:02:01;;;;;;;3.78;0.80;;;20.00;1.00;;;;;;6101505;23;20109;-91
2022/07/14 00:04:31;;;;;;;2.53;0.50;;;20.00;1.00;;;;;;6077935;23;20044;-90
2022/07/14 00:06:58;;;;;;;1.20;0.30;;;19.90;1.00;;;;;;6102314;23;20025;-90
2022/07/14 00:09:28;;;;;;;5.40;0.70;;;19.90;1.00;;;;;;6077413;23;20029;-90
2022/07/14 00:11:55;;;;;;;2.80;0.98;;;19.80;1.00;;;;;;6101990;23;20048;-90
2022/07/14 00:14:22;;;;;;;4.90;1.20;;;19.80;1.00;;;;;;6102427;23;20018;-90
2022/07/14 00:16:50;;;;;;;1.50;0.63;;;19.80;1.00;;;;;;6078064;23;20033;-90
2022/07/14 00:19:18;;;;;;;1.80;0.60;;;19.80;1.00;;;;;;6078301;23;20383;-91
2022/07/14 00:21:48;;;;;;;1.58;0.55;;;19.70;1.00;;;;;;6102365;23;20021;-91
2022/07/14 00:24:16;;;;;;;1.83;0.30;;;19.70;1.00;;;;;;6101246;23;20022;-90
2022/07/14 00:26:43;;;;;;;2.00;0.95;;;19.70;1.00;;;;;;6102058;23;20029;-90
2022/07/14 00:29:10;;;;;;;4.10;0.73;;;19.60;1.00;;;;;;6101980;23;20398;-90
2022/07/14 00:31:37;;;;;;;1.55;0.43;;;19.60;1.00;;;;;;6078137;23;20527;-91
2022/07/14 00:34:04;;;;;;;1.30;0.70;;;19.60;1.00;;;;;;6127018;23;20073;-90
2022/07/14 00:36:32;;;;;;;2.72;0.60;;;19.60;1.00;;;;;;6102122;23;20018;-90
2022/07/14 00:39:01;;;;;;;1.98;0.73;;;19.50;1.00;;;;;;6077788;23;20350;-91
2022/07/14 00:41:28;;;;;;;3.70;1.13;;;19.50;1.00;;;;;;6101349;23;20030;-90
2022/07/14 00:43:55;;;;;;;4.40;0.95;;;19.50;1.00;;;;;;6077280;23;20022;-91
2022/07/14 00:46:22;;;;;;;1.60;0.73;;;19.40;1.00;;;;;;6101688;23;20014;-90
2022/07/14 00:48:50;;;;;;;1.80;0.68;;;19.40;1.00;;;;;;6101325;23;20050;-91
2022/07/14 00:51:17;;;;;;;2.80;0.88;;;19.40;1.00;;;;;;6101526;23;20442;-90
2022/07/14 00:53:55;;;;;;;2.60;0.90;;;19.40;1.00;;;;;;6077937;23;20026;-90
2022/07/14 00:56:22;;;;;;;1.42;0.47;;;19.30;1.00;;;;;;6077627;23;20052;-91
2022/07/14 00:58:52;;;;;;;2.15;0.80;;;19.30;1.00;;;;;;6101341;23;20022;-91
2022/07/14 01:01:21;;;;;;;1.55;0.60;;;19.30;1.00;;;;;;6077988;23;20138;-90
2022/07/14 01:03:48;;;;;;;3.72;1.27;;;19.30;1.00;;;;;;6077204;23;20018;-91
2022/07/14 01:06:16;;;;;;;3.22;0.80;;;19.20;1.00;;;;;;6101661;23;20018;-90
2022/07/14 01:08:43;;;;;;;2.88;0.57;;;19.20;1.00;;;;;;6076808;23;20096;-91
2022/07/14 01:11:18;;;;;;;1.83;0.40;;;19.20;1.00;;;;;;6079242;23;20100;-91
2022/07/14 01:14:02;;;;;;;3.00;1.10;;;19.20;1.00;;;;;;6077952;23;20050;-92
2022/07/14 01:16:43;;;;;;;4.90;0.77;;;19.10;1.00;;;;;;6103616;23;20014;-90
2022/07/14 01:19:43;;;;;;;4.55;0.63;;;19.10;1.00;;;;;;6102034;23;20018;-92
2022/07/14 01:22:23;;;;;;;2.63;0.50;;;19.10;1.00;;;;;;6078189;23;20438;-92
2022/07/14 01:25:28;;;;;;;3.30;0.65;;;19.00;1.00;;;;;;6077483;23;20018;-92
2022/07/14 01:28:18;;;;;;;1.17;0.47;;;19.00;1.00;;;;;;6101389;23;20395;-92
2022/07/14 01:31:02;;;;;;;2.88;0.82;;;18.90;1.00;;;;;;6079276;23;20073;-92
2022/07/14 01:33:49;;;;;;;6.68;0.88;;;19.00;1.00;;;;;;6101824;23;20046;-91
2022/07/14 01:36:26;;;;;;;3.50;0.80;;;18.90;1.00;;;;;;6077648;23;20109;-91
2022/07/14 01:55:17;;;;;;;3.10;0.52;;;18.70;1.00;;;;;;6146556;23;20021;-91
2022/07/14 01:57:50;;;;;;;1.95;0.50;;;18.70;1.00;;;;;;6122471;23;20082;-91
2022/07/14 02:00:23;;;;;;;1.10;0.50;;;18.70;1.00;;;;;;6102500;23;20085;-90
2022/07/14 02:02:59;;;;;;;7.22;1.48;;;18.60;1.00;;;;;;6126969;23;20028;-91
2022/07/14 02:05:44;;;;;;;2.10;0.70;;;18.60;1.00;;;;;;6129394;23;20033;-89
2022/07/14 02:08:27;;;;;;;6.07;1.00;;;18.60;1.00;;;;;;6119761;23;20022;-90
2022/07/14 02:14:24;;;;;;;2.25;0.65;;;18.50;1.00;;;;;;6101195;23;20024;-89
2022/07/14 02:16:57;;;;;;;1.50;0.65;;;18.50;1.00;;;;;;6100911;23;20327;-90
2022/07/14 02:19:25;;;;;;;1.85;0.80;;;18.50;1.00;;;;;;6077241;23;20060;-90
2022/07/14 02:21:55;;;;;;;3.13;0.60;;;18.50;1.00;;;;;;6077027;23;20053;-91
2022/07/14 02:24:39;;;;;;;2.22;0.70;;;18.40;1.00;;;;;;6078790;23;20451;-91
2022/07/14 02:27:40;;;;;;;3.00;0.80;;;18.40;1.00;;;;;;6104233;23;20022;-91
2022/07/14 02:30:20;;;;;;;3.80;0.77;;;18.40;1.00;;;;;;6079070;23;20028;-91
2022/07/14 02:32:51;;;;;;;2.47;0.65;;;18.40;1.00;;;;;;6077864;23;20620;-91
2022/07/14 02:35:46;;;;;;;4.50;0.90;;;18.30;1.00;;;;;;6078436;23;20029;-89
2022/07/14 02:38:24;;;;;;;1.98;0.73;;;18.30;1.00;;;;;;6079007;23;20472;-92
2022/07/14 02:40:59;;;;;;;3.30;0.80;;;18.30;1.00;;;;;;6101207;23;20017;-90
2022/07/14 02:43:42;;;;;;;1.77;0.77;;;18.30;1.00;;;;;;6076506;23;20405;-91
2022/07/14 02:46:15;;;;;;;3.30;0.80;;;18.20;1.00;;;;;;6078304;23;20022;-92
2022/07/14 02:48:43;;;;;;;2.17;0.70;;;18.20;1.00;;;;;;6101345;23;20057;-90
2022/07/14 02:51:10;;;;;;;3.75;0.70;;;18.20;1.00;;;;;;6076788;23;20025;-91
2022/07/14 02:53:40;;;;;;;3.15;0.90;;;18.20;1.00;;;;;;6100107;23;20025;-90
2022/07/14 02:56:13;;;;;;;2.10;0.73;;;18.10;1.00;;;;;;6100474;23;20057;-90
2022/07/14 02:58:46;;;;;;;2.25;0.68;;;18.10;1.00;;;;;;6100878;23;20041;-90
2022/07/14 03:01:17;;;;;;;2.95;1.17;;;18.10;1.00;;;;;;6077474;23;20053;-90
2022/07/14 03:03:47;;;;;;;4.60;1.15;;;18.10;1.00;;;;;;6077130;23;20065;-90
2022/07/14 03:06:19;;;;;;;2.85;0.70;;;18.10;1.00;;;;;;6077941;23;20061;-90
2022/07/14 03:08:52;;;;;;;1.90;0.60;;;18.10;1.00;;;;;;6077746;23;20447;-90
2022/07/14 03:11:29;;;;;;;1.45;0.63;;;18.00;1.00;;;;;;6078196;23;20033;-90
2022/07/14 03:14:01;;;;;;;1.73;0.80;;;18.00;1.00;;;;;;6126289;23;20022;-90
2022/07/14 03:16:32;;;;;;;6.20;0.68;;;18.00;1.00;;;;;;6100731;23;20278;-91
2022/07/14 03:19:09;;;;;;;1.25;0.43;;;17.90;1.00;;;;;;6078215;23;20018;-90
2022/07/14 03:21:41;;;;;;;1.33;0.47;;;17.90;1.00;;;;;;6100459;23;20048;-91
2022/07/14 03:24:14;;;;;;;4.32;0.93;;;17.90;1.00;;;;;;6077391;23;20481;-90
2022/07/14 03:26:41;;;;;;;3.28;0.73;;;17.90;1.00;;;;;;6077508;23;20045;-90
2022/07/14 03:29:09;;;;;;;3.78;0.82;;;17.90;1.00;;;;;;6101252;23;20024;-90
2022/07/14 03:31:37;;;;;;;2.78;0.68;;;17.90;1.00;;;;;;6100706;23;20449;-91
2022/07/14 03:34:12;;;;;;;2.28;0.90;;;17.80;1.00;;;;;;6102129;23;20018;-91
2022/07/14 03:36:42;;;;;;;2.30;0.70;;;17.80;1.00;;;;;;6077671;23;20048;-90
2022/07/14 03:39:20;;;;;;;2.83;0.68;;;17.80;1.00;;;;;;6101704;23;20406;-90
2022/07/14 03:41:47;;;;;;;2.42;0.77;;;17.80;1.00;;;;;;6102166;23;20418;-90
2022/07/14 03:44:17;;;;;;;1.80;0.75;;;17.80;1.00;;;;;;6078662;23;20477;-91
2022/07/14 03:46:46;;;;;;;1.63;0.30;;;17.70;1.00;;;;;;6102458;23;20025;-91
2022/07/14 03:49:17;;;;;;;1.20;0.50;;;17.70;1.00;;;;;;6101962;23;20020;-90
2022/07/14 03:51:50;;;;;;;0.93;0.52;;;17.70;1.00;;;;;;6079146;23;20026;-91
2022/07/14 03:54:38;;;;;;;1.40;0.70;;;17.70;1.00;;;;;;6127969;23;20021;-91
2022/07/14 04:00:19;;;;;;;1.42;0.63;;;17.60;1.00;;;;;;6102591;23;20085;-91
2022/07/14 04:03:16;;;;;;;2.00;0.60;;;17.60;1.00;;;;;;6102808;23;20018;-90
2022/07/14 04:05:52;;;;;;;1.88;0.60;;;17.60;1.00;;;;;;6081399;23;20022;-91
2022/07/14 04:08:26;;;;;;;3.38;0.60;;;17.60;1.00;;;;;;6080442;23;20022;-88
2022/07/14 04:10:59;;;;;;;1.52;0.60;;;17.50;1.00;;;;;;6102695;23;20028;-90
2022/07/14 04:13:32;;;;;;;2.55;0.70;;;17.60;1.00;;;;;;6077800;23;20526;-90
2022/07/14 04:16:10;;;;;;;4.40;0.90;;;17.50;1.00;;;;;;6078638;23;20021;-90
2022/07/14 04:18:42;;;;;;;3.10;0.60;;;17.50;1.00;;;;;;6079664;23;20050;-91
2022/07/14 04:21:38;;;;;;;3.65;1.15;;;17.50;1.00;;;;;;6108306;23;20327;-89
2022/07/14 04:24:49;;;;;;;2.30;0.57;;;17.50;1.00;;;;;;6085260;23;20092;-90
2022/07/14 04:44:54;;;;;;;2.58;0.60;;;17.40;1.00;;;;;;6069122;23;20088;-89
2022/07/14 04:47:27;;;;;;;1.15;0.45;;;17.40;1.00;;;;;;6100777;23;20023;-93
2022/07/14 04:52:56;;;;;;;1.55;0.60;;;17.40;1.00;;;;;;6125014;23;20010;-92
2022/07/14 04:56:02;;;;;;;3.03;0.43;;;17.40;1.00;;;;;;6085776;23;20023;-92
2022/07/14 04:59:03;;;;;;;3.00;0.65;;;17.40;1.00;;;;;;6050225;23;20034;-92
2022/07/14 05:02:12;;;;;;;1.50;0.77;;;17.40;1.00;;;;;;6044423;23;20027;-92
2022/07/14 05:05:30;;;;;;;;;;;;;;;;;;;;;
2022/07/14 05:08:59;;;;;;;1.25;0.43;;;17.40;1.00;;;;;;5981463;24;20028;-92
2022/07/14 05:15:06;;;;;;;0.60;0.20;;;17.40;1.00;;;;;;5973599;24;20051;-92
2022/07/14 05:21:56;;;;;;;1.67;0.60;;;17.40;1.00;;;;;;5981859;24;20107;-92
2022/07/14 05:24:34;;;;;;;1.48;0.40;;;17.40;1.00;;;;;;5958638;24;20025;-93
2022/07/14 05:27:33;;;;;;;1.00;0.28;;;17.40;1.00;;;;;;5958983;24;20099;-92
2022/07/14 05:34:22;;;;;;;1.20;0.40;;;17.40;1.00;;;;;;6056920;23;20421;-92
2022/07/14 05:37:01;;;;;;;2.13;0.43;;;17.40;1.00;;;;;;6045919;23;20023;-92
2022/07/14 05:39:45;;;;;;;2.22;0.30;;;17.40;1.00;;;;;;6043444;23;20106;-92
2022/07/14 05:42:20;;;;;;;2.20;0.37;;;17.50;1.00;;;;;;6044527;23;20106;-92
2022/07/14 05:45:34;;;;;;;1.48;0.47;;;17.50;1.00;;;;;;6045449;23;20098;-92
2022/07/14 05:48:13;;;;;;;1.27;0.40;;;17.50;1.00;;;;;;6068191;23;20074;-92
2022/07/14 05:50:49;;;;;;;0.77;0.30;;;17.50;1.00;;;;;;6045957;23;20102;-92
2022/07/14 05:56:55;;;;;;;1.73;0.40;;;17.50;1.00;;;;;;6067171;23;20066;-92
2022/07/14 06:00:15;;;;;;;3.53;0.45;;;17.50;1.00;;;;;;6052873;23;20022;-92
2022/07/14 06:03:31;;;;;;;2.00;0.30;;;17.60;1.00;;;;;;6046041;23;20022;-92
2022/07/14 06:06:18;;;;;;;2.88;0.68;;;17.50;1.00;;;;;;6047290;23;20023;-90
2022/07/14 06:08:59;;;;;;;3.05;0.93;;;17.60;1.00;;;;;;6046979;23;20018;-92
2022/07/14 06:12:08;;;;;;;3.20;0.28;;;17.60;1.00;;;;;;6043621;23;20015;-91
2022/07/14 06:24:05;;;;;;;;;;;;;;;;;;;;;
2022/07/14 06:27:42;;;;;;;;;;;;;;;;;;;;;
2022/07/14 06:38:17;;;;;;;;;;;;;;;;;;;;;
2022/07/14 06:42:03;;;;;;;;;;;;;;;;;;;;;
2022/07/14 07:02:52;;;;;;;;;;;;;;;;;;;;;
2022/07/14 07:06:53;;;;;;;2.53;0.40;;;18.00;1.00;;;;;;5792303;24;20078;-92
2022/07/14 07:10:00;;;;;;;;;;;;;;;;;;;;;
2022/07/14 07:21:18;;;;;;;2.10;0.40;;;18.20;1.00;;;;;;5754020;24;20515;-92
2022/07/14 07:25:10;;;;;;;;;;;;;;;;;;;;;
2022/07/14 07:33:10;;;;;;;1.23;0.40;;;18.30;1.00;;;;;;5668115;25;20114;-89
2022/07/14 07:49:48;;;;;;;;;;;;;;;;;;;;;
2022/07/14 08:29:27;;;;;;;2.17;0.40;;;19.00;1.00;;;;;;5831983;24;20574;-91
2022/07/14 08:33:29;;;;;;;1.05;0.20;;;19.10;1.00;;;;;;5955503;23;20096;-91
2022/07/14 08:36:28;;;;;;;0.40;0.10;;;19.20;1.00;;;;;;5965408;23;20019;-91
2022/07/14 08:39:48;;;;;;;1.67;0.55;;;19.20;1.00;;;;;;6073581;23;20021;-91
2022/07/14 08:46:39;;;;;;;;;;;;;;;;;;;;;
2022/07/14 08:49:59;;;;;;;2.67;0.20;;;19.40;1.00;;;;;;6006912;23;20026;-92
2022/07/14 08:53:03;;;;;;;1.42;0.20;;;19.50;1.00;;;;;;6052205;23;20050;-91
2022/07/14 08:55:55;;;;;;;0.80;0.28;;;19.50;1.00;;;;;;6070445;23;20394;-91
2022/07/14 08:59:06;;;;;;;1.50;0.50;;;19.60;1.00;;;;;;6050579;23;20532;-91
2022/07/14 09:02:19;;;;;;;1.40;0.32;;;19.60;1.00;;;;;;6073011;23;20019;-92
2022/07/14 09:04:55;;;;;;;3.42;0.20;;;19.70;1.00;;;;;;6048126;23;20451;-91
2022/07/14 09:07:53;;;;;;;2.13;0.47;;;19.70;1.00;;;;;;6049735;23;20092;-91
2022/07/14 09:11:02;;;;;;;1.60;0.15;;;19.80;1.00;;;;;;6089378;23;20097;-92
2022/07/14 09:18:23;;;;;;;0.80;0.20;;;20.10;1.00;;;;;;6088041;23;20018;-91
2022/07/14 09:25:49;;;;;;;2.13;0.30;;;20.10;1.00;;;;;;6127115;23;20077;-91
2022/07/14 09:29:34;;;;;;;;;;;;;;;;;;;;;
2022/07/14 09:37:26;;;;;;;0.30;0.10;;;20.40;1.00;;;;;;6102810;23;20018;-91
2022/07/14 09:40:33;;;;;;;3.60;0.38;;;20.40;1.00;;;;;;6079221;23;20018;-91
2022/07/14 09:43:27;;;;;;;2.08;0.40;;;20.30;1.00;;;;;;6101222;23;20022;-91
2022/07/14 09:46:33;;;;;;;0.85;0.30;;;20.40;1.00;;;;;;6080431;23;20018;-91
2022/07/14 09:49:31;;;;;;;2.13;0.40;;;20.60;1.00;;;;;;6104457;23;20085;-91
2022/07/14 09:57:40;;;;;;;3.03;0.60;;;20.80;1.00;;;;;;6001881;23;20064;-91
2022/07/14 10:01:00;;;;;;;1.80;0.20;;;20.90;1.00;;;;;;5989431;23;20102;-91
2022/07/14 10:03:49;;;;;;;1.75;0.20;;;21.00;1.00;;;;;;5991736;23;20388;-91
2022/07/14 10:06:45;;;;;;;1.23;0.40;;;21.00;1.00;;;;;;6017759;23;20024;-90
2022/07/14 10:09:20;;;;;;;2.45;0.13;;;20.90;1.00;;;;;;6021166;23;20031;-91
2022/07/14 10:12:01;;;;;;;1.90;0.20;;;21.00;1.00;;;;;;6016417;23;20019;-91
2022/07/14 10:14:43;;;;;;;1.35;0.45;;;21.10;1.00;;;;;;6019077;23;20049;-90
2022/07/14 10:17:19;;;;;;;0.65;0.30;;;21.10;1.00;;;;;;6041963;23;20035;-91
2022/07/14 10:20:38;;;;;;;2.55;0.43;;;21.00;1.00;;;;;;6020997;23;20057;-91
2022/07/14 10:23:40;;;;;;;0.98;0.20;;;21.10;1.00;;;;;;6021677;23;20555;-91
2022/07/14 10:30:59;;;;;;;2.22;0.30;;;21.30;1.00;;;;;;6098969;23;20017;-91
2022/07/14 10:34:30;;;;;;;1.27;0.20;;;21.20;1.00;;;;;;6060486;23;20073;-91
2022/07/14 10:37:30;;;;;;;1.85;0.22;;;21.30;1.00;;;;;;6105412;23;20029;-91
2022/07/14 10:40:49;;;;;;;1.23;0.20;;;21.40;1.00;;;;;;6101559;23;20049;-91
2022/07/14 10:43:59;;;;;;;0.52;0.17;;;21.40;1.00;;;;;;6102866;23;20033;-92
2022/07/14 10:47:48;;;;;;;;;;;;;;;;;;;;;
2022/07/14 10:50:30;;;;;;;2.17;0.30;;;21.60;1.00;;;;;;6093694;23;20030;-91
2022/07/14 10:53:14;;;;;;;4.68;0.50;;;21.70;1.00;;;;;;6078890;23;20020;-91
2022/07/14 11:01:10;;;;;;;2.78;0.52;;;21.90;1.00;;;;;;6008985;23;20111;-91
2022/07/14 11:05:17;;;;;;;0.90;0.20;;;22.10;1.00;;;;;;5988475;23;20018;-90
2022/07/14 11:08:13;;;;;;;1.55;0.30;;;22.10;1.00;;;;;;5990767;23;20032;-91
2022/07/14 11:11:12;;;;;;;1.23;0.30;;;22.30;1.00;;;;;;6065494;23;20033;-89
2022/07/14 11:21:06;;;;;;;;;;;;;;;;;;;;;
2022/07/14 11:23:57;;;;;;;1.85;0.30;;;22.80;1.00;;;;;;6123215;23;20018;-90
2022/07/14 11:27:38;;;;;;;;;;;;;;;;;;;;;
2022/07/14 11:31:21;;;;;;;2.60;0.40;;;22.90;1.00;;;;;;6122866;23;20500;-90
2022/07/14 11:39:23;;;;;;;;;;;;;;;;;;;;;
2022/07/14 11:46:42;;;;;;;1.00;0.40;;;23.60;1.00;;;;;;5956605;24;20020;-91
2022/07/14 11:50:32;;;;;;;;;;;;;;;;;;;;;
2022/07/14 11:54:01;;;;;;;1.02;0.35;;;24.00;1.00;;;;;;5981433;23;20048;-91
2022/07/14 11:57:18;;;;;;;0.30;0.05;;;23.90;1.00;;;;;;5975417;24;20406;-90
2022/07/14 12:00:13;;;;;;;2.58;0.22;;;24.00;1.00;;;;;;5958508;24;20051;-91
2022/07/14 12:03:37;;;;;;;1.50;0.38;;;24.10;1.00;;;;;;5885079;24;20217;-91
2022/07/14 12:07:15;;;;;;;;;;;;;;;;;;;;;
2022/07/14 12:10:13;;;;;;;0.77;0.10;;;24.40;1.00;;;;;;5814814;24;20015;-91
2022/07/14 12:13:10;;;;;;;1.17;0.10;;;24.40;1.00;;;;;;5776341;24;20019;-91
2022/07/14 12:15:59;;;;;;;1.30;0.17;;;24.20;1.00;;;;;;5773332;24;20023;-91
2022/07/14 12:18:37;;;;;;;1.48;0.30;;;24.30;1.00;;;;;;5818674;24;20575;-90
2022/07/14 12:33:30;;;;;;;1.70;0.35;;;24.70;1.00;;;;;;5896849;24;20041;-91
2022/07/14 12:37:08;;;;;;;;;;;;;;;;;;;;;
2022/07/14 12:40:11;;;;;;;0.95;0.30;;;24.60;1.00;;;;;;5900683;24;20092;-90
2022/07/14 12:46:57;;;;;;;1.88;0.17;;;24.90;1.00;;;;;;5923369;24;20036;-90
2022/07/14 12:50:37;;;;;;;1.17;0.30;;;24.90;1.00;;;;;;5907268;24;20008;-91
2022/07/14 13:00:49;;;;;;;;;;;;;;;;;;;;;
2022/07/14 13:04:56;;;;;;;2.33;0.50;;;25.00;1.00;;;;;;6146611;23;20353;-91
2022/07/14 13:21:09;;;;;;;1.35;0.50;;;25.50;1.00;;;;;;5958522;24;20028;-91
2022/07/14 13:24:23;;;;;;;1.95;0.40;;;25.40;1.00;;;;;;6020408;23;20068;-91
2022/07/14 13:27:15;;;;;;;1.15;0.40;;;25.60;1.00;;;;;;6109231;23;20022;-91
2022/07/14 13:30:07;;;;;;;0.32;0.20;;;25.50;1.00;;;;;;6109371;23;20508;-91
2022/07/14 13:33:03;;;;;;;1.15;0.22;;;25.70;1.00;;;;;;6108722;23;20017;-91
2022/07/14 13:39:52;;;;;;;1.73;0.45;;;25.90;1.00;;;;;;6102286;23;20077;-91
2022/07/14 13:43:43;;;;;;;;;;;;;;;;;;;;;
2022/07/14 13:46:56;;;;;;;2.17;0.77;;;25.90;1.00;;;;;;6092011;23;20458;-91
2022/07/14 14:42:37;;;;;;;3.53;0.55;;;27.10;1.00;;;;;;6081838;23;20048;-88
2022/07/14 14:45:11;;;;;;;2.03;0.80;;;27.20;1.00;;;;;;6126772;23;20020;-90
2022/07/14 14:47:54;;;;;;;3.08;0.73;;;27.10;1.00;;;;;;6122793;23;20453;-86
2022/07/14 14:50:24;;;;;;;3.47;0.80;;;27.30;1.00;;;;;;6125200;23;20101;-85
2022/07/14 14:53:16;;;;;;;5.97;0.60;;;27.50;1.00;;;;;;6125607;23;20021;-91
2022/07/14 14:56:22;;;;;;;2.88;0.88;;;27.00;1.00;;;;;;6125498;23;20060;-89
2022/07/14 14:58:55;;;;;;;2.45;0.60;;;27.20;1.00;;;;;;6126113;23;20026;-90
2022/07/14 15:01:55;;;;;;;3.58;0.75;;;27.40;1.00;;;;;;6115874;23;20032;-91
2022/07/14 15:04:29;;;;;;;1.90;0.70;;;27.50;1.00;;;;;;6102776;23;20454;-89
2022/07/14 15:07:00;;;;;;;2.08;0.73;;;27.60;1.00;;;;;;6127546;23;20426;-89
2022/07/14 15:09:27;;;;;;;2.95;0.60;;;27.50;1.00;;;;;;6126113;23;20024;-90
2022/07/14 15:12:05;;;;;;;1.67;0.68;;;27.10;1.00;;;;;;6127219;23;20140;-90
2022/07/14 15:14:37;;;;;;;2.35;0.90;;;27.60;1.00;;;;;;6126379;23;20105;-91
2022/07/14 15:17:07;;;;;;;5.35;1.73;;;27.30;1.00;;;;;;6126786;23;20018;-90
2022/07/14 15:19:35;;;;;;;3.53;0.77;;;27.50;1.00;;;;;;6130849;23;20045;-91
2022/07/14 15:22:06;;;;;;;4.85;0.77;;;27.20;1.00;;;;;;6107927;23;20025;-89
2022/07/14 15:24:46;;;;;;;4.18;1.58;;;27.30;1.00;;;;;;6132425;23;20080;-90
2022/07/14 15:27:16;;;;;;;4.15;0.90;;;27.40;1.00;;;;;;6131222;23;20009;-91
2022/07/14 15:29:46;;;;;;;5.10;0.73;;;27.10;1.00;;;;;;6153852;23;20029;-88
2022/07/14 15:32:23;;;;;;;4.07;1.00;;;27.30;1.00;;;;;;6155471;23;20014;-92
2022/07/14 15:34:56;;;;;;;2.17;0.95;;;26.60;1.00;;;;;;6155607;23;20005;-89
2022/07/14 15:37:27;;;;;;;2.13;0.90;;;26.80;1.00;;;;;;6131621;23;20012;-90
2022/07/14 15:42:49;;;;;;;6.03;0.80;;;27.10;1.00;;;;;;6122335;23;20018;-89
2022/07/14 15:45:19;;;;;;;5.25;1.38;;;27.10;1.00;;;;;;6076972;23;20026;-91
2022/07/14 15:47:49;;;;;;;3.58;1.25;;;27.00;1.00;;;;;;6075900;23;20018;-93
2022/07/14 15:50:20;;;;;;;2.63;0.85;;;27.10;1.00;;;;;;6099514;23;20019;-91
2022/07/14 15:52:50;;;;;;;5.60;1.52;;;26.80;1.00;;;;;;6100592;23;20026;-93
2022/07/14 15:55:19;;;;;;;4.95;0.88;;;26.60;1.00;;;;;;6099026;23;20014;-89
2022/07/14 15:57:46;;;;;;;3.60;0.80;;;26.60;1.00;;;;;;6100755;23;20022;-89
2022/07/14 16:00:19;;;;;;;5.82;1.20;;;26.50;1.00;;;;;;6098903;23;20762;-88
2022/07/14 16:02:50;;;;;;;2.85;0.82;;;26.60;1.00;;;;;;6099605;23;20042;-91
2022/07/14 16:05:17;;;;;;;1.85;0.90;;;26.30;1.00;;;;;;6099290;23;20015;-90
2022/07/14 16:08:08;;;;;;;2.90;1.10;;;26.00;1.00;;;;;;6080112;23;20081;-93
2022/07/14 16:10:36;;;;;;;1.77;0.75;;;25.90;1.00;;;;;;6100068;23;20025;-91
2022/07/14 16:13:07;;;;;;;6.00;1.20;;;26.20;1.00;;;;;;6073926;23;20026;-89
2022/07/14 16:15:36;;;;;;;2.70;0.63;;;26.20;1.00;;;;;;6074608;23;20502;-90
2022/07/14 16:18:06;;;;;;;4.43;1.55;;;25.70;1.00;;;;;;6098627;23;20069;-90
2022/07/14 16:20:33;;;;;;;3.65;0.88;;;25.90;1.00;;;;;;6074187;23;20088;-89
2022/07/14 16:23:03;;;;;;;5.95;0.85;;;25.40;1.00;;;;;;6074289;23;20022;-92
2022/07/14 16:25:32;;;;;;;5.90;1.67;;;25.70;1.00;;;;;;6098014;23;20011;-90
2022/07/14 16:28:43;;;;;;;4.55;1.15;;;25.90;1.00;;;;;;6098080;23;20022;-90
2022/07/14 16:31:03;;;;;;;3.25;0.70;;;26.10;1.00;;;;;;6092230;23;20019;-91
2022/07/14 16:33:34;;;;;;;3.42;0.98;;;26.20;1.00;;;;;;6098520;23;20014;-91
2022/07/14 16:36:06;;;;;;;2.63;0.80;;;26.70;1.00;;;;;;6098552;23;20068;-93
2022/07/14 16:38:40;;;;;;;3.92;0.80;;;26.80;1.00;;;;;;6074874;23;20022;-94
2022/07/14 16:41:51;;;;;;;2.53;0.82;;;26.60;1.00;;;;;;6080741;23;20026;-89
2022/07/14 16:44:21;;;;;;;3.60;1.38;;;26.70;1.00;;;;;;6108138;23;20043;-92
2022/07/14 16:46:57;;;;;;;3.28;1.20;;;26.70;1.00;;;;;;6110030;23;20096;-90
2022/07/14 16:49:24;;;;;;;2.85;0.80;;;26.80;1.00;;;;;;6107561;23;20022;-89
2022/07/14 16:52:00;;;;;;;2.47;1.00;;;26.80;1.00;;;;;;6156475;23;20014;-91
2022/07/14 16:54:28;;;;;;;1.52;0.63;;;26.70;1.00;;;;;;6131685;23;20017;-90
2022/07/14 16:57:01;;;;;;;6.20;1.17;;;26.80;1.00;;;;;;6107643;23;20053;-93
2022/07/14 16:59:28;;;;;;;3.45;0.77;;;26.80;1.00;;;;;;6131202;23;20017;-91
2022/07/14 17:01:58;;;;;;;2.05;0.93;;;26.70;1.00;;;;;;6107747;23;20021;-89
2022/07/14 17:04:25;;;;;;;2.90;0.65;;;26.60;1.00;;;;;;6131614;23;20025;-94
2022/07/14 17:06:52;;;;;;;4.22;1.02;;;26.50;1.00;;;;;;6107794;23;20059;-91
2022/07/14 17:09:20;;;;;;;1.77;0.77;;;26.40;1.00;;;;;;6109913;23;20022;-89
2022/07/14 17:11:47;;;;;;;3.92;0.98;;;26.20;1.00;;;;;;6157341;23;20017;-91
2022/07/14 17:14:14;;;;;;;3.65;0.85;;;25.90;1.00;;;;;;6157946;23;20456;-91
2022/07/14 17:16:42;;;;;;;3.53;1.17;;;25.40;1.00;;;;;;6132160;23;20072;-92
2022/07/14 17:19:32;;;;;;;2.42;1.02;;;25.70;1.00;;;;;;6135739;23;20013;-95
2022/07/14 17:21:59;;;;;;;6.20;1.42;;;25.80;1.00;;;;;;6132094;23;20021;-90
2022/07/14 17:24:40;;;;;;;;;;;;;;;;;;;;;
2022/07/14 17:27:10;;;;;;;5.38;1.13;;;25.80;1.00;;;;;;6131693;23;20032;-92
2022/07/14 17:29:37;;;;;;;2.17;0.90;;;25.80;1.00;;;;;;6131246;23;20022;-92
2022/07/14 17:32:04;;;;;;;3.42;0.80;;;25.60;1.00;;;;;;6134563;23;20092;-91
2022/07/14 17:34:32;;;;;;;2.42;0.85;;;25.60;1.00;;;;;;6107625;23;20013;-90
2022/07/14 17:36:59;;;;;;;3.92;1.10;;;25.60;1.00;;;;;;6130962;23;20025;-92
2022/07/14 17:39:27;;;;;;;4.85;0.90;;;25.50;1.00;;;;;;6131770;23;20049;-91
2022/07/14 17:41:54;;;;;;;3.60;0.90;;;25.20;1.00;;;;;;6131263;23;20520;-91
2022/07/14 17:44:21;;;;;;;2.33;0.75;;;25.10;1.00;;;;;;6106955;23;20025;-90
2022/07/14 17:46:48;;;;;;;3.72;0.80;;;25.10;1.00;;;;;;6131445;23;20017;-90
2022/07/14 17:49:15;;;;;;;7.35;1.15;;;25.10;1.00;;;;;;6131171;23;20021;-90
2022/07/14 17:54:27;;;;;;;2.25;0.70;;;24.80;1.00;;;;;;6156664;23;20009;-90
2022/07/14 17:56:55;;;;;;;4.20;0.98;;;24.80;1.00;;;;;;6155363;23;20036;-91
2022/07/14 17:59:23;;;;;;;4.57;0.70;;;24.70;1.00;;;;;;6156631;23;20033;-91
2022/07/14 18:01:50;;;;;;;7.80;1.33;;;24.70;1.00;;;;;;6156968;23;20018;-89
2022/07/14 18:04:17;;;;;;;5.13;0.82;;;24.60;1.00;;;;;;6148151;23;20025;-90
2022/07/14 18:06:48;;;;;;;3.05;0.60;;;24.50;1.00;;;;;;6156210;23;20001;-90
2022/07/14 18:09:16;;;;;;;5.15;1.52;;;24.60;1.00;;;;;;6134012;23;20029;-87
2022/07/14 18:11:44;;;;;;;4.68;0.68;;;24.60;1.00;;;;;;6159150;23;20041;-87
2022/07/14 18:14:12;;;;;;;4.60;1.10;;;24.40;1.00;;;;;;6134525;23;20018;-87
2022/07/14 18:16:39;;;;;;;2.90;0.60;;;24.40;1.00;;;;;;6154746;23;20068;-88
2022/07/14 18:19:07;;;;;;;2.80;1.08;;;24.20;1.00;;;;;;6160501;23;20069;-87
2022/07/14 18:21:36;;;;;;;6.80;1.05;;;24.00;1.00;;;;;;6132104;23;20017;-89
2022/07/14 18:24:05;;;;;;;3.20;1.23;;;24.00;1.00;;;;;;6131616;23;20181;-90
2022/07/14 18:26:33;;;;;;;4.80;1.10;;;24.00;1.00;;;;;;6108610;23;20018;-89
2022/07/14 18:29:00;;;;;;;4.63;0.63;;;23.90;1.00;;;;;;6130998;23;20044;-88
2022/07/14 18:31:27;;;;;;;3.05;0.65;;;23.80;1.00;;;;;;6156569;23;20017;-89
2022/07/14 18:33:54;;;;;;;3.35;0.50;;;23.50;1.00;;;;;;6129846;23;20040;-88
2022/07/14 18:36:21;;;;;;;2.42;0.75;;;23.50;1.00;;;;;;6154498;23;20022;-88
2022/07/14 18:38:48;;;;;;;5.80;0.85;;;23.50;1.00;;;;;;6130261;23;20017;-88
2022/07/14 18:41:16;;;;;;;1.65;0.68;;;23.50;1.00;;;;;;6155774;23;20028;-87
2022/07/14 18:43:43;;;;;;;1.63;1.10;;;23.50;1.00;;;;;;6105294;23;20076;-88
2022/07/14 18:46:15;;;;;;;2.53;0.68;;;23.50;1.00;;;;;;6129522;23;20029;-88
2022/07/14 18:48:53;;;;;;;3.45;1.08;;;23.40;1.00;;;;;;6129695;23;20092;-89
2022/07/14 18:51:28;;;;;;;3.53;0.90;;;23.40;1.00;;;;;;6105659;23;20442;-89
2022/07/14 18:53:57;;;;;;;3.85;0.80;;;22.90;1.00;;;;;;6155850;23;20013;-89
2022/07/14 18:56:24;;;;;;;6.57;1.02;;;22.90;1.00;;;;;;6130144;23;20100;-88
2022/07/14 18:58:51;;;;;;;3.45;1.00;;;22.70;1.00;;;;;;6130395;23;20052;-87
2022/07/14 19:01:18;;;;;;;6.00;1.08;;;22.70;1.00;;;;;;6130334;23;20017;-88
2022/07/14 19:03:46;;;;;;;4.65;1.02;;;23.00;1.00;;;;;;6107424;23;20021;-90
2022/07/14 19:06:14;;;;;;;7.10;0.47;;;23.00;1.00;;;;;;6132058;23;20375;-90
2022/07/14 19:08:47;;;;;;;2.15;0.60;;;22.60;1.00;;;;;;6132733;23;20048;-90
2022/07/14 19:11:17;;;;;;;3.10;0.65;;;22.60;1.00;;;;;;6158442;23;20053;-90
2022/07/14 19:13:45;;;;;;;2.15;0.85;;;22.70;1.00;;;;;;6131559;23;20441;-92
2022/07/14 19:16:16;;;;;;;1.10;0.47;;;22.60;1.00;;;;;;6133174;23;20460;-89
2022/07/14 19:18:49;;;;;;;2.90;0.60;;;22.50;1.00;;;;;;6109512;23;20504;-90
2022/07/14 19:21:18;;;;;;;2.53;0.55;;;22.60;1.00;;;;;;6108860;23;20022;-90
2022/07/14 19:23:46;;;;;;;1.42;0.20;;;22.50;1.00;;;;;;6131609;23;20021;-92
2022/07/14 19:26:13;;;;;;;2.17;0.65;;;22.20;1.00;;;;;;6133188;23;20025;-88
2022/07/14 19:28:40;;;;;;;2.60;0.38;;;22.10;1.00;;;;;;6134498;23;20022;-86
2022/07/14 19:31:07;;;;;;;1.95;0.80;;;22.10;1.00;;;;;;6131773;23;20022;-88
2022/07/14 19:33:37;;;;;;;2.03;0.63;;;22.20;1.00;;;;;;6131262;23;20014;-89
2022/07/14 19:36:05;;;;;;;3.42;0.98;;;22.20;1.00;;;;;;6107400;23;20025;-89
2022/07/14 19:38:32;;;;;;;2.45;0.55;;;22.10;1.00;;;;;;6158395;23;20028;-90
2022/07/14 19:40:59;;;;;;;2.80;0.40;;;22.10;1.00;;;;;;6132434;23;20025;-88
2022/07/14 19:43:26;;;;;;;2.38;0.77;;;22.10;1.00;;;;;;6131321;23;20453;-89
2022/07/14 19:45:53;;;;;;;2.30;0.50;;;22.10;1.00;;;;;;6156809;23;20022;-91
2022/07/14 19:48:21;;;;;;;2.90;0.50;;;22.10;1.00;;;;;;6155595;23;20464;-88
2022/07/14 19:50:48;;;;;;;5.25;0.77;;;22.10;1.00;;;;;;6156103;23;20488;-87
2022/07/14 19:53:15;;;;;;;3.15;0.60;;;22.00;1.00;;;;;;6131164;23;20060;-88